createdAt,value
2018-12-17T00:11:25.213Z,10.61
2018-12-17T00:17:20.263Z,8.16
2018-12-17T00:23:15.232Z,7.3
2018-12-17T00:29:10.230Z,7.6
2018-12-17T00:35:05.267Z,8.03
2018-12-17T00:41:00.265Z,7.8
2018-12-17T00:46:55.253Z,7.7
2018-12-17T00:52:50.272Z,7.79
2018-12-17T00:58:45.289Z,7.59
2018-12-17T01:04:40.256Z,7.5
2018-12-17T01:10:35.272Z,7.55
2018-12-17T01:16:30.257Z,7.38
2018-12-17T01:22:25.259Z,7.87
2018-12-17T01:28:22.222Z,8.14
2018-12-17T01:34:15.269Z,9.17
2018-12-17T01:40:10.275Z,7.83
2018-12-17T01:46:05.289Z,7.78
2018-12-17T01:52:00.308Z,7.16
2018-12-17T01:57:55.301Z,7.88
2018-12-17T02:03:50.287Z,8.03
2018-12-17T02:09:45.288Z,7.93
2018-12-17T02:15:40.318Z,8.55
2018-12-17T02:21:35.273Z,7.97
2018-12-17T02:27:30.284Z,7.37
2018-12-17T02:33:25.276Z,7.98
2018-12-17T02:39:20.303Z,7.46
2018-12-17T02:45:15.362Z,8.08
2018-12-17T02:51:10.298Z,7.27
2018-12-17T02:57:05.330Z,7.12
2018-12-17T03:03:00.315Z,8.11
2018-12-17T03:08:55.313Z,7.9
2018-12-17T03:14:50.352Z,7.28
2018-12-17T03:20:45.326Z,7.14
2018-12-17T03:26:40.328Z,7.56
2018-12-17T03:32:35.343Z,7.46
2018-12-17T03:38:30.326Z,7.7
2018-12-17T03:44:25.382Z,7.02
2018-12-17T03:50:20.354Z,6.79
2018-12-17T03:56:15.370Z,5.92
2018-12-17T04:02:10.337Z,4.12
2018-12-17T04:08:05.388Z,4.61
2018-12-17T04:14:00.340Z,4.41
2018-12-17T04:19:55.354Z,3.73
2018-12-17T04:25:50.352Z,2.82
2018-12-17T04:31:45.371Z,1.83
2018-12-17T04:37:40.377Z,1.63
2018-12-17T04:43:35.374Z,1.16
2018-12-17T04:49:30.422Z,0.87
2018-12-17T04:55:25.400Z,0.82
2018-12-17T05:01:20.376Z,1
2018-12-17T05:07:15.399Z,0.92
2018-12-17T05:13:10.374Z,0.91
2018-12-17T05:19:05.392Z,0.91
2018-12-17T05:25:00.382Z,0.8
2018-12-17T05:30:55.399Z,0.96
2018-12-17T05:36:50.437Z,0.65
2018-12-17T05:42:45.479Z,0.53
2018-12-17T05:48:40.406Z,0.49
2018-12-17T05:54:35.438Z,0.68
2018-12-17T06:00:30.413Z,1.01
2018-12-17T06:06:25.414Z,1.06
2018-12-17T06:12:20.427Z,0.76
2018-12-17T06:18:15.415Z,0.82
2018-12-17T06:24:10.434Z,0.78
2018-12-17T06:30:05.426Z,0.71
2018-12-17T06:36:00.434Z,0.63
2018-12-17T06:41:55.425Z,0.71
2018-12-17T06:47:50.479Z,0.67
2018-12-17T06:53:45.448Z,0.77
2018-12-17T06:59:42.761Z,0.66
2018-12-17T07:05:35.444Z,0.76
2018-12-17T07:11:30.455Z,0.66
2018-12-17T07:17:25.448Z,0.74
2018-12-17T07:23:20.482Z,0.65
2018-12-17T07:29:15.509Z,0.69
2018-12-17T07:35:10.444Z,0.91
2018-12-17T07:41:05.474Z,0.86
2018-12-17T07:47:00.454Z,0.75
2018-12-17T07:52:55.486Z,0.77
2018-12-17T07:58:50.483Z,0.73
2018-12-17T08:04:45.496Z,0.68
2018-12-17T08:10:40.488Z,0.64
2018-12-17T08:16:35.495Z,0.75
2018-12-17T08:22:30.491Z,0.6
2018-12-17T08:28:25.492Z,0.53
2018-12-17T08:34:20.522Z,0.55
2018-12-17T08:40:15.524Z,0.54
2018-12-17T08:46:10.491Z,0.56
2018-12-17T08:52:05.504Z,0.48
2018-12-17T08:58:00.526Z,0.57
2018-12-17T09:03:55.568Z,0.67
2018-12-17T09:09:50.518Z,0.72
2018-12-17T09:15:45.573Z,1.25
2018-12-17T09:21:40.529Z,1.75
2018-12-17T09:27:35.534Z,1.16
2018-12-17T09:33:30.558Z,1.51
2018-12-17T09:39:25.538Z,1.6
2018-12-17T09:45:20.609Z,1.14
2018-12-17T09:51:19.416Z,0.7
2018-12-17T09:57:10.542Z,0.7
2018-12-17T10:03:05.550Z,0.76
2018-12-17T10:09:01.180Z,1.91
2018-12-17T10:14:55.559Z,1.97
2018-12-17T10:20:50.572Z,2
2018-12-17T10:26:45.569Z,1.49
2018-12-17T10:32:40.559Z,3.48
2018-12-17T10:38:35.569Z,2.45
2018-12-17T10:44:30.555Z,2.57
2018-12-17T10:50:25.631Z,3.01
2018-12-17T10:56:20.586Z,1.99
2018-12-17T11:02:15.597Z,1.38
2018-12-17T11:08:10.569Z,2.62
2018-12-17T11:14:05.589Z,2.47
2018-12-17T11:20:00.673Z,3.19
2018-12-17T11:25:55.598Z,1.72
2018-12-17T11:31:50.623Z,3.52
2018-12-17T11:37:45.617Z,1.38
2018-12-17T11:43:43.730Z,1.35
2018-12-17T11:49:35.606Z,1.33
2018-12-17T11:55:30.647Z,1.55
2018-12-17T12:01:25.620Z,1.36
2018-12-17T12:07:20.641Z,3.04
2018-12-17T12:13:15.627Z,1.9
2018-12-17T12:19:10.663Z,1.54
2018-12-17T12:25:05.634Z,1.17
2018-12-17T12:31:00.773Z,1.4
2018-12-17T12:36:55.636Z,20.98
2018-12-17T12:42:51.697Z,3.93
2018-12-17T12:48:45.652Z,1.39
2018-12-17T12:54:40.660Z,2.24
2018-12-17T13:00:35.680Z,2.96
2018-12-17T13:06:30.654Z,3.39
2018-12-17T13:12:25.679Z,2.08
2018-12-17T13:18:20.638Z,15.83
2018-12-17T13:24:15.670Z,3.39
2018-12-17T13:30:10.699Z,3.14
2018-12-17T13:36:05.681Z,3.38
2018-12-17T13:42:00.684Z,4.66
2018-12-17T13:47:55.672Z,1.99
2018-12-17T13:53:50.702Z,3.82
2018-12-17T13:59:45.703Z,4.03
2018-12-17T14:05:40.687Z,2.79
2018-12-17T14:11:35.687Z,2.2
2018-12-17T14:17:30.682Z,2.51
2018-12-17T14:23:25.696Z,2.34
2018-12-17T14:29:20.680Z,2.1
2018-12-17T14:35:15.719Z,1.86
2018-12-17T14:41:10.709Z,2.59
2018-12-17T14:47:05.693Z,2.78
2018-12-17T14:53:00.721Z,2.64
2018-12-17T14:58:55.697Z,2.53
2018-12-17T15:04:50.732Z,2.97
2018-12-17T15:10:45.732Z,2.77
2018-12-17T15:16:40.776Z,2.82
2018-12-17T15:22:35.726Z,3.2
2018-12-17T15:28:30.786Z,4.21
2018-12-17T15:34:25.766Z,3.79
2018-12-17T15:40:20.735Z,5.78
2018-12-17T15:46:15.731Z,4.03
2018-12-17T15:52:10.745Z,6.71
2018-12-17T15:58:05.804Z,4.02
2018-12-17T16:04:00.756Z,2.89
2018-12-17T16:09:55.739Z,2.77
2018-12-17T16:15:50.755Z,3.16
2018-12-17T16:21:45.810Z,4.25
2018-12-17T16:27:40.742Z,3.85
2018-12-17T16:33:35.769Z,4.27
2018-12-17T16:39:31.208Z,3.64
2018-12-17T16:45:25.808Z,4.34
2018-12-17T16:51:20.769Z,4.53
2018-12-17T16:57:15.776Z,4.57
2018-12-17T17:03:10.808Z,5.12
2018-12-17T17:09:05.790Z,3.87
2018-12-17T17:15:00.802Z,4.08
2018-12-17T17:20:55.802Z,5.93
2018-12-17T17:26:50.796Z,6.83
2018-12-17T17:32:45.804Z,4.7
2018-12-17T17:38:40.828Z,4.27
2018-12-17T17:44:35.787Z,4.67
2018-12-17T17:50:30.831Z,4.24
2018-12-17T17:56:25.821Z,6.96
2018-12-17T18:02:20.850Z,6.87
2018-12-17T18:08:15.820Z,6.68
2018-12-17T18:14:10.823Z,5.61
2018-12-17T18:20:05.842Z,6.54
2018-12-17T18:26:00.831Z,8.46
2018-12-17T18:31:55.851Z,7.74
2018-12-17T18:37:50.833Z,3.57
2018-12-17T18:43:45.827Z,4.91
2018-12-17T18:49:40.831Z,4.11
2018-12-17T18:55:35.850Z,4.81
2018-12-17T19:01:30.853Z,4.24
2018-12-17T19:07:25.860Z,4.66
2018-12-17T19:13:20.863Z,6.44
2018-12-17T19:19:15.869Z,5.25
2018-12-17T19:25:10.871Z,6.74
2018-12-17T19:31:05.881Z,5.78
2018-12-17T19:37:00.891Z,6.85
2018-12-17T19:42:55.933Z,7.13
2018-12-17T19:48:50.876Z,7.04
2018-12-17T19:54:45.894Z,7.54
2018-12-17T20:00:40.914Z,7.7
2018-12-17T20:06:35.876Z,9.5
2018-12-17T20:12:30.901Z,7.82
2018-12-17T20:18:25.903Z,7.51
2018-12-17T20:24:20.920Z,7.19
2018-12-17T20:30:15.887Z,7.44
2018-12-17T20:36:10.903Z,8.79
2018-12-17T20:42:05.912Z,7.47
2018-12-17T20:48:00.907Z,8.96
2018-12-17T20:53:55.953Z,7.99
2018-12-17T20:59:50.897Z,8.03
2018-12-17T21:05:45.907Z,8.94
2018-12-17T21:11:40.937Z,9.01
2018-12-17T21:17:35.917Z,9.56
2018-12-17T21:23:30.971Z,11.74
2018-12-17T21:29:25.929Z,18.64
2018-12-17T21:35:20.938Z,13.1
2018-12-17T21:41:15.975Z,12.14
2018-12-17T21:47:10.940Z,9.78
2018-12-17T21:53:05.955Z,8.32
2018-12-17T21:59:01.004Z,8.43
2018-12-17T22:04:55.956Z,9.17
2018-12-17T22:10:51.001Z,8.07
2018-12-17T22:16:45.960Z,9.58
2018-12-17T22:22:40.970Z,10.05
2018-12-17T22:28:35.968Z,9.56
2018-12-17T22:34:30.986Z,11.7
2018-12-17T22:40:25.991Z,16.49
2018-12-17T22:46:21.003Z,13.94
2018-12-17T22:52:16.006Z,12.31
2018-12-17T22:58:10.970Z,12.32
2018-12-17T23:04:05.998Z,11.04
2018-12-17T23:10:00.975Z,10.72
2018-12-17T23:15:55.980Z,11.17
2018-12-17T23:21:51.028Z,10.84
2018-12-17T23:27:46.001Z,10.53
2018-12-17T23:33:41.013Z,10.77
2018-12-17T23:39:35.994Z,11.08
2018-12-17T23:45:31.018Z,10.72
2018-12-17T23:51:25.984Z,11.64
2018-12-17T23:57:21.045Z,10.98
